createdAt,value
2023-05-20T00:03:39.964Z,5.38
2023-05-20T00:08:42.799Z,8.60
2023-05-20T00:13:46.972Z,7.15
2023-05-20T00:18:49.766Z,5.68
2023-05-20T00:23:52.878Z,5.60
2023-05-20T00:28:56.948Z,7.38
2023-05-20T00:33:59.829Z,8.75
2023-05-20T00:39:02.673Z,8.45
2023-05-20T00:44:07.220Z,13.73
2023-05-20T00:49:10.078Z,6.20
2023-05-20T00:54:13.442Z,3.25
2023-05-20T00:59:17.977Z,5.00
2023-05-20T01:04:22.014Z,6.15
2023-05-20T01:09:25.222Z,9.40
2023-05-20T01:14:33.362Z,7.05
2023-05-20T01:19:42.113Z,8.93
2023-05-20T01:24:48.307Z,11.20
2023-05-20T01:29:52.414Z,7.38
2023-05-20T01:34:57.979Z,8.68
2023-05-20T01:40:02.548Z,9.15
2023-05-20T01:45:06.885Z,8.85
2023-05-20T01:50:10.311Z,8.90
2023-05-20T01:55:15.012Z,9.00
2023-05-20T02:00:18.322Z,6.32
2023-05-20T02:05:21.380Z,7.93
2023-05-20T02:10:25.651Z,10.55
2023-05-20T02:15:28.464Z,6.95
2023-05-20T02:20:33.001Z,6.03
2023-05-20T02:25:38.573Z,9.73
2023-05-20T02:30:41.648Z,9.57
2023-05-20T02:35:44.571Z,6.07
2023-05-20T02:40:48.720Z,11.65
2023-05-20T02:45:52.418Z,11.10
2023-05-20T02:50:55.968Z,10.65
2023-05-20T02:56:01.576Z,5.88
2023-05-20T03:01:04.580Z,5.40
2023-05-20T03:06:08.162Z,12.30
2023-05-20T03:11:12.350Z,7.63
2023-05-20T03:16:16.708Z,9.15
2023-05-20T03:21:23.772Z,11.15
2023-05-20T03:26:28.093Z,10.43
2023-05-20T03:31:31.134Z,8.98
2023-05-20T03:36:33.989Z,15.02
2023-05-20T03:41:40.596Z,11.52
2023-05-20T03:46:43.958Z,11.43
2023-05-20T03:51:47.208Z,10.00
2023-05-20T03:56:52.239Z,8.55
2023-05-20T04:01:57.014Z,7.45
2023-05-20T04:07:00.781Z,8.18
2023-05-20T04:12:06.089Z,5.28
2023-05-20T04:17:09.601Z,6.97
2023-05-20T04:22:12.687Z,8.13
2023-05-20T04:27:17.146Z,8.18
2023-05-20T04:32:21.141Z,7.85
2023-05-20T04:37:25.293Z,11.40
2023-05-20T04:42:29.902Z,5.75
2023-05-20T04:47:38.990Z,7.57
2023-05-20T04:52:43.044Z,16.92
2023-05-20T04:57:48.225Z,6.00
2023-05-20T05:02:51.048Z,6.07
2023-05-20T05:07:55.370Z,8.68
2023-05-20T05:13:00.428Z,5.28
2023-05-20T05:18:03.903Z,10.25
2023-05-20T05:23:08.399Z,8.15
2023-05-20T05:28:12.727Z,7.82
2023-05-20T05:33:17.328Z,5.65
2023-05-20T05:38:20.408Z,12.70
2023-05-20T05:43:25.338Z,7.68
2023-05-20T05:48:29.380Z,8.13
2023-05-20T05:53:32.355Z,13.48
2023-05-20T05:58:37.183Z,6.15
2023-05-20T06:03:42.206Z,9.23
2023-05-20T06:08:45.236Z,7.85
2023-05-20T06:13:50.520Z,8.30
2023-05-20T06:18:57.101Z,11.65
2023-05-20T06:23:59.997Z,10.70
2023-05-20T06:29:04.867Z,14.05
2023-05-20T06:34:09.054Z,11.68
2023-05-20T06:39:12.583Z,12.80
2023-05-20T06:44:19.266Z,11.45
2023-05-20T06:49:29.579Z,11.82
2023-05-20T06:54:34.167Z,10.75
2023-05-20T06:59:39.300Z,7.28
2023-05-20T07:04:43.115Z,20.20
2023-05-20T07:09:46.470Z,8.35
2023-05-20T07:14:51.449Z,12.20
2023-05-20T07:19:54.489Z,12.60
2023-05-20T07:24:57.459Z,8.93
2023-05-20T07:30:01.956Z,10.70
2023-05-20T07:35:07.421Z,8.98
2023-05-20T07:40:12.327Z,10.75
2023-05-20T07:45:18.291Z,12.85
2023-05-20T07:50:22.787Z,15.93
2023-05-20T07:55:25.910Z,10.30
2023-05-20T08:00:31.342Z,9.60
2023-05-20T08:05:38.873Z,11.70
2023-05-20T08:10:42.334Z,8.45
2023-05-20T08:15:48.508Z,8.52
2023-05-20T08:20:51.725Z,14.40
2023-05-20T08:25:56.399Z,18.75
2023-05-20T08:31:03.777Z,13.90
2023-05-20T08:36:08.939Z,16.98
2023-05-20T08:41:12.274Z,10.70
2023-05-20T08:46:20.427Z,8.90
2023-05-20T08:51:28.382Z,9.90
2023-05-20T08:56:32.810Z,11.38
2023-05-20T09:01:43.495Z,9.93
2023-05-20T09:06:47.375Z,12.43
2023-05-20T09:11:50.149Z,13.57
2023-05-20T09:16:54.434Z,8.90
2023-05-20T09:21:58.231Z,10.93
2023-05-20T09:27:01.050Z,10.77
2023-05-20T09:32:06.339Z,9.82
2023-05-20T09:37:11.014Z,9.55
2023-05-20T09:42:20.560Z,13.50
2023-05-20T09:47:25.682Z,13.60
2023-05-20T09:52:30.237Z,14.80
2023-05-20T09:57:35.447Z,12.68
2023-05-20T10:02:39.967Z,11.68
2023-05-20T10:07:58.594Z,12.15
2023-05-20T10:13:14.396Z,13.63
2023-05-20T10:18:31.477Z,18.88
2023-05-20T10:23:34.363Z,13.57
2023-05-20T10:28:38.513Z,15.45
2023-05-20T10:33:45.581Z,14.32
2023-05-20T10:38:53.869Z,10.18
2023-05-20T10:49:19.614Z,17.38
2023-05-20T10:54:24.572Z,11.55
2023-05-20T10:59:27.580Z,13.48
2023-05-20T11:04:32.625Z,8.68
2023-05-20T11:09:36.412Z,12.07
2023-05-20T11:14:39.190Z,14.30
2023-05-20T11:19:43.536Z,11.38
2023-05-20T11:24:48.289Z,9.90
2023-05-20T11:29:51.917Z,15.88
2023-05-20T11:34:56.641Z,13.65
2023-05-20T11:40:11.031Z,18.40
2023-05-20T11:45:14.744Z,12.88
2023-05-20T11:50:19.837Z,9.85
2023-05-20T11:55:22.640Z,16.67
2023-05-20T12:00:29.275Z,19.85
2023-05-20T12:05:35.929Z,41.58
2023-05-20T12:10:39.212Z,13.35
2023-05-20T12:15:42.585Z,11.35
2023-05-20T12:20:46.969Z,12.63
2023-05-20T12:25:50.175Z,12.57
2023-05-20T12:30:53.330Z,9.38
2023-05-20T12:35:59.329Z,15.02
2023-05-20T12:41:02.192Z,10.13
2023-05-20T12:46:05.860Z,18.10
2023-05-20T12:51:10.046Z,11.68
2023-05-20T12:56:15.143Z,10.07
2023-05-20T13:01:17.967Z,12.25
2023-05-20T13:06:23.965Z,9.70
2023-05-20T13:11:26.920Z,10.67
2023-05-20T13:16:29.784Z,10.25
2023-05-20T13:21:34.607Z,16.83
2023-05-20T13:26:38.311Z,10.95
2023-05-20T13:31:41.126Z,6.55
2023-05-20T13:36:45.579Z,10.90
2023-05-20T13:41:48.475Z,13.95
2023-05-20T13:46:52.144Z,17.45
2023-05-20T13:51:56.524Z,17.15
2023-05-20T13:56:59.511Z,13.07
2023-05-20T14:02:04.450Z,11.52
2023-05-20T14:07:10.160Z,9.88
2023-05-20T14:12:13.749Z,9.82
2023-05-20T14:17:16.742Z,13.90
2023-05-20T14:22:20.976Z,10.23
2023-05-20T14:27:24.155Z,21.90
2023-05-20T14:32:27.138Z,11.07
2023-05-20T14:37:31.408Z,25.80
2023-05-20T14:42:34.596Z,10.65
2023-05-20T14:47:40.153Z,9.10
2023-05-20T14:52:44.449Z,20.88
2023-05-20T14:57:47.636Z,35.55
2023-05-20T15:02:50.499Z,6.03
2023-05-20T15:07:57.453Z,14.32
2023-05-20T15:13:00.331Z,9.10
2023-05-20T15:18:03.145Z,8.02
2023-05-20T15:23:07.381Z,8.10
2023-05-20T15:28:10.781Z,6.87
2023-05-20T15:33:13.698Z,6.20
2023-05-20T15:38:18.747Z,6.65
2023-05-20T15:43:22.342Z,6.50
2023-05-20T15:48:25.289Z,12.20
2023-05-20T15:53:29.444Z,9.20
2023-05-20T15:58:32.476Z,7.72
2023-05-20T16:03:35.905Z,10.20
2023-05-20T16:08:41.789Z,12.15
2023-05-20T16:13:44.533Z,12.27
2023-05-20T16:18:47.405Z,8.30
2023-05-20T16:23:52.672Z,14.27
2023-05-20T16:28:55.947Z,10.98
2023-05-20T16:33:59.845Z,8.32
2023-05-20T16:39:04.334Z,9.95
2023-05-20T16:44:07.180Z,8.93
2023-05-20T16:49:10.011Z,7.43
2023-05-20T16:54:14.131Z,9.07
2023-05-20T16:59:18.738Z,8.75
2023-05-20T17:04:21.619Z,7.70
2023-05-20T17:09:25.941Z,9.27
2023-05-20T17:14:28.740Z,13.80
2023-05-20T17:19:31.831Z,8.18
2023-05-20T17:24:36.863Z,8.77
2023-05-20T17:29:39.716Z,10.50
2023-05-20T17:34:42.519Z,8.45
2023-05-20T17:39:46.976Z,12.00
2023-05-20T17:44:49.863Z,11.77
2023-05-20T17:49:53.108Z,10.57
2023-05-20T17:54:57.288Z,13.23
2023-05-20T18:00:00.228Z,11.23
2023-05-20T18:05:03.033Z,19.02
2023-05-20T18:10:10.190Z,14.63
2023-05-20T18:15:14.202Z,12.98
2023-05-20T18:20:17.933Z,14.10
2023-05-20T18:25:23.404Z,15.57
2023-05-20T18:30:26.426Z,18.48
2023-05-20T18:35:29.550Z,17.05
2023-05-20T18:40:35.824Z,16.55
2023-05-20T18:45:38.858Z,19.55
2023-05-20T18:50:41.997Z,19.40
2023-05-20T18:55:47.660Z,32.83
2023-05-20T19:00:51.051Z,24.17
2023-05-20T19:05:55.599Z,23.55
2023-05-20T19:10:59.868Z,24.63
2023-05-20T19:16:02.837Z,23.73
2023-05-20T19:21:07.292Z,41.42
2023-05-20T19:26:11.911Z,30.60
2023-05-20T19:31:20.820Z,22.90
2023-05-20T19:36:25.738Z,22.67
2023-05-20T19:41:30.016Z,23.30
2023-05-20T19:46:32.996Z,24.58
2023-05-20T19:51:36.650Z,23.15
2023-05-20T19:56:41.827Z,29.40
2023-05-20T20:01:45.162Z,22.88
2023-05-20T20:06:49.273Z,26.17
2023-05-20T20:11:53.454Z,32.60
2023-05-20T20:16:56.275Z,26.92
2023-05-20T20:21:59.268Z,31.35
2023-05-20T20:27:04.559Z,23.92
2023-05-20T20:32:08.085Z,25.33
2023-05-20T20:37:15.327Z,23.88
2023-05-20T20:47:23.652Z,31.80
2023-05-20T20:52:26.645Z,30.25
2023-05-20T20:57:32.055Z,28.05
2023-05-20T21:02:34.888Z,28.88
2023-05-20T21:07:38.969Z,29.98
2023-05-20T21:12:43.193Z,23.25
2023-05-20T21:17:46.118Z,27.02
2023-05-20T21:22:48.959Z,31.15
2023-05-20T21:27:53.076Z,30.52
2023-05-20T21:32:56.072Z,34.58
2023-05-20T21:37:59.313Z,27.70
2023-05-20T21:43:03.503Z,30.90
2023-05-20T21:48:07.194Z,31.02
2023-05-20T21:53:10.328Z,32.55
2023-05-20T21:58:14.665Z,31.35
2023-05-20T22:03:17.878Z,34.33
2023-05-20T22:08:20.929Z,32.22
2023-05-20T22:13:26.157Z,29.15
2023-05-20T22:18:29.145Z,38.28
2023-05-20T22:23:31.991Z,30.75
2023-05-20T22:28:36.221Z,30.33
2023-05-20T22:33:41.314Z,27.13
2023-05-20T22:38:44.132Z,34.67
2023-05-20T22:43:48.299Z,30.45
2023-05-20T22:48:52.815Z,27.77
2023-05-20T22:53:56.601Z,36.10
2023-05-20T22:59:00.909Z,27.48
2023-05-20T23:04:03.765Z,30.55
2023-05-20T23:09:07.385Z,29.73
2023-05-20T23:14:12.196Z,29.77
2023-05-20T23:19:15.109Z,31.10
2023-05-20T23:24:17.932Z,29.58
2023-05-20T23:29:22.360Z,28.85
2023-05-20T23:34:25.156Z,32.58
2023-05-20T23:39:27.926Z,29.25
2023-05-20T23:44:32.186Z,30.02
2023-05-20T23:49:35.206Z,32.63
2023-05-20T23:54:37.939Z,28.67
2023-05-20T23:59:43.011Z,32.58
